Istambul, Turkey

06:32 AM +03 em 26 de Março de 2017 (GMT +0300)
Ataturk | | Change Station

Elev 121 ft 40.97 °N, 28.82 °E | Updated 12 minutes ago

Mostly Cloudy
Muito Nublado
46 °F
Aparente 46 °F
N
0
Vento Variável Vento de Norte

Hoje
Máxima -- | Mínima -- °F
--% Possibilidade de Precip.
Ontem
Máxima -- | Mínima -- °F
Precip. -- pol
Pressão 29.98 pol
Visibilidade 3.1 milhas
Nuvens Muito Nublado 900 ft
Ponto de Orvalho 41 °F
Humidade 81%
Chuva 0.00 pol
Altura de Neve Não disponível
6:58 AM 7:23 PM
Quarto minguante, 5% visible
METAR LTBA 260320Z 00000KT 5000 BR BKN009 08/05 Q1015 NOSIG
Pressão 29.98 pol
Visibilidade 3.1 milhas
Nuvens Muito Nublado 900 ft
Ponto de Orvalho 41 °F
Humidade 81%
Chuva 0.00 pol
Altura de Neve Não disponível
6:58 AM 7:23 PM
Quarto minguante, 5% visible
METAR LTBA 260320Z 00000KT 5000 BR BKN009 08/05 Q1015 NOSIG

Get Severe Weather Alerts

Thanks for signing up!

Be on the lookout for a verification email in your inbox.

You'll start receiving the daily forecast at 8 AM.

×

10-Day Weather Forecast

×

Almanac

Astronomia

Mar. 26, 2017 Nascer Pôr
Hora atual
Crepúsculo civil
Crepúsculo náutico
Crepúsculo astronómico
Lua
Comprimento da luz visível
Duração do Dia
Tomorrow will be .
, % of the Moon is Illuminated

Extremos de Hoje

Altitude na localidade Altura mais baixa na localidade

Community

WunderPhotos

Upload Photos

1,962,540 fotografias inseridas!

WunderBlog® & News

Nearby

Qualidade do Ar

  Qualidade do Ar Índice da Q.A. Poluente
Not available.

Altura da Neve

Estação altura Altitude

Actividade Sísmisca

Cidade Distância Mag. Hora & Data
Mínima magnitude apresentada é 2.5.

Actividade Sísmisca

Cidade Distância Mag. Hora & Data
Mínima magnitude apresentada é 2.5.

Temperaturas das Águas Costeiras

Local Temperatura

Stations

Estações Meteorológicas Próximas

Localização da Estação Temp. Sensação Térmica Ponto de Orvalho Humidade Vento Precip. Elev Actualizado Tipo